Colima Airport
MMIA : now visible

Airfield :











YOU CAN JOIN US ON...

 
LOGIN :

Register | Disclaimer

   EN    FR    IT 

 









Legend :    VFR   Marginal VFR   IFR   Intensive IFR   Very Intensive IFR
Visi :
Ceiling :
>= 8 km
>= 3000ft
5 to 8 km
1000 to 3000 ft
1500m to 5 km
500 to 1000 ft
800 to 1500m
200 to 500 ft
< 800m
< 200 ft
Symbols :   Thunderstorms  Fog  Heavy snow  Heavy precipitations  Wind > 20 kt






- Airport Elevation : 2467 ft
- IATA code : CLQ


MMIA - Colima

CURRENT METAR :
  • 130340Z 00000KT 6SM SCT200 23/16 A3008 RMK 8/001

EXPIRED METARs :
  • 130240Z 00000KT 6SM SCT200 23/18 A3007 RMK 8/001
  • 130140Z 00000KT 6SM SCT200 23/18 A3005 RMK 8/002

TAF TAF MMIA
Valid from the 12 at 18:00 until the 13 at 18:00 UTC


121623Z 1218/1318 04010KT P6SM SCT030 BKN240
BECMG 1302/1303 00000KT
FM131500 03010KT P6SM SCT250



MET'MAP, your aeronautical weather chart ! - Copyright ORBIFLY December 2007 - Disclaimer

ORBIFLY MET'MAP TEAM :

Programming & Development : Alexandra Zaïnal
Concept & original design : Baudouin d'Aumeries
Assistance for programming : Marc-Olivier Méhu
Technical & hardware support : Manuel Goepfert

Contact : metmap@orbifly.com




SOURCES & CREDITS :

   NOAA       Earth
Advisory